Time;durP1;ratioP1;P1;durP2;ratioP2;P2;SDS_P1;SDS_P2;PMS_P1;PMS_P2;Temp;Humidity;BMP_temperature;BMP_pressure;BME280_temperature;BME280_humidity;BME280_pressure;Samples;Min_cycle;Max_cycle;Signal;HPM_P1;HPM_P2
2021/04/24 00:03:24;;;;;;;10.9;9.3;;;;;;;7.6;56.0;102650;;;;
2021/04/24 00:05:24;;;;;;;10.9;9.3;;;;;;;7.5;56.3;102660;;;;
2021/04/24 00:07:24;;;;;;;10.9;9.3;;;;;;;7.4;56.0;102650;;;;
2021/04/24 00:09:24;;;;;;;10.9;9.3;;;;;;;7.5;56.4;102650;;;;
2021/04/24 00:13:24;;;;;;;12.8;9.2;;;;;;;7.2;56.0;102650;;;;
2021/04/24 00:17:24;;;;;;;12.8;9.2;;;;;;;7.3;55.9;102660;;;;
2021/04/24 00:19:24;;;;;;;12.8;9.2;;;;;;;7.1;56.8;102650;;;;
2021/04/24 00:25:24;;;;;;;12.8;9.2;;;;;;;7.0;56.4;102650;;;;
2021/04/24 00:27:24;;;;;;;12.8;9.2;;;;;;;6.8;57.2;102650;;;;
2021/04/24 00:29:24;;;;;;;12.8;9.2;;;;;;;6.9;57.0;102660;;;;
2021/04/24 00:31:24;;;;;;;12.2;8.8;;;;;;;6.8;57.4;102660;;;;
2021/04/24 00:41:24;;;;;;;12.2;8.8;;;;;;;6.5;57.7;102650;;;;
2021/04/24 00:43:24;;;;;;;12.2;8.8;;;;;;;6.6;58.1;102650;;;;
2021/04/24 00:47:24;;;;;;;12.2;8.8;;;;;;;6.4;57.9;102650;;;;
2021/04/24 00:49:24;;;;;;;12.2;8.8;;;;;;;6.6;57.0;102650;;;;
2021/04/24 00:51:24;;;;;;;14.5;9.3;;;;;;;6.7;56.8;102650;;;;
2021/04/24 00:55:24;;;;;;;14.5;9.3;;;;;;;6.6;58.2;102640;;;;
2021/04/24 00:57:24;;;;;;;14.5;9.3;;;;;;;6.5;58.1;102650;;;;
2021/04/24 01:01:24;;;;;;;14.5;9.3;;;;;;;6.4;58.0;102650;;;;
2021/04/24 01:05:24;;;;;;;14.5;9.3;;;;;;;6.5;57.8;102650;;;;
2021/04/24 01:07:24;;;;;;;14.5;9.3;;;;;;;6.4;57.7;102640;;;;
2021/04/24 01:09:24;;;;;;;14.5;9.3;;;;;;;6.3;58.0;102650;;;;
2021/04/24 01:11:24;;;;;;;12.8;9.7;;;;;;;6.4;57.9;102640;;;;
2021/04/24 01:13:24;;;;;;;12.8;9.7;;;;;;;6.5;57.4;102640;;;;
2021/04/24 01:17:24;;;;;;;12.8;9.7;;;;;;;6.3;58.3;102640;;;;
2021/04/24 01:19:24;;;;;;;12.8;9.7;;;;;;;6.2;58.2;102640;;;;
2021/04/24 01:21:24;;;;;;;12.8;9.7;;;;;;;6.0;59.3;102640;;;;
2021/04/24 01:25:24;;;;;;;12.8;9.7;;;;;;;6.2;58.6;102630;;;;
2021/04/24 01:29:24;;;;;;;12.8;9.7;;;;;;;6.1;58.6;102630;;;;
2021/04/24 01:31:24;;;;;;;12.3;9.8;;;;;;;5.9;59.0;102630;;;;
2021/04/24 01:33:24;;;;;;;12.3;9.8;;;;;;;5.8;59.6;102630;;;;
2021/04/24 01:39:24;;;;;;;12.3;9.8;;;;;;;5.7;60.3;102630;;;;
2021/04/24 01:43:24;;;;;;;12.3;9.8;;;;;;;5.9;59.8;102630;;;;
2021/04/24 01:45:24;;;;;;;12.3;9.8;;;;;;;5.8;59.4;102630;;;;
2021/04/24 01:49:24;;;;;;;12.3;9.8;;;;;;;5.7;60.5;102630;;;;
2021/04/24 01:51:24;;;;;;;12.8;9.8;;;;;;;5.8;60.1;102630;;;;
2021/04/24 01:53:24;;;;;;;12.8;9.8;;;;;;;5.9;60.2;102620;;;;
2021/04/24 01:55:24;;;;;;;12.8;9.8;;;;;;;6.0;59.5;102620;;;;
2021/04/24 01:57:24;;;;;;;12.8;9.8;;;;;;;5.6;60.5;102630;;;;
2021/04/24 01:59:24;;;;;;;12.8;9.8;;;;;;;5.5;61.4;102620;;;;
2021/04/24 02:01:24;;;;;;;12.8;9.8;;;;;;;5.8;60.1;102620;;;;
2021/04/24 02:03:24;;;;;;;12.8;9.8;;;;;;;5.7;60.1;102630;;;;
2021/04/24 02:05:24;;;;;;;12.8;9.8;;;;;;;5.6;60.4;102630;;;;
2021/04/24 02:07:24;;;;;;;12.8;9.8;;;;;;;5.8;59.8;102630;;;;
2021/04/24 02:11:24;;;;;;;11.7;10.2;;;;;;;6.0;59.7;102630;;;;
2021/04/24 02:13:24;;;;;;;11.7;10.2;;;;;;;5.8;60.3;102630;;;;
2021/04/24 02:17:24;;;;;;;11.7;10.2;;;;;;;5.7;60.1;102630;;;;
2021/04/24 02:21:24;;;;;;;11.7;10.2;;;;;;;5.8;59.9;102630;;;;
2021/04/24 02:23:24;;;;;;;11.7;10.2;;;;;;;5.7;60.1;102630;;;;
2021/04/24 02:25:24;;;;;;;11.7;10.2;;;;;;;5.6;60.5;102630;;;;
2021/04/24 02:27:24;;;;;;;11.7;10.2;;;;;;;5.5;60.4;102630;;;;
2021/04/24 02:31:24;;;;;;;14.0;10.7;;;;;;;5.6;60.5;102630;;;;
2021/04/24 02:33:28;;;;;;;14.0;10.7;;;;;;;5.7;60.5;102630;;;;
2021/04/24 02:35:24;;;;;;;14.0;10.7;;;;;;;5.6;60.8;102630;;;;
2021/04/24 02:37:24;;;;;;;14.0;10.7;;;;;;;5.4;61.1;102640;;;;
2021/04/24 02:39:24;;;;;;;14.0;10.7;;;;;;;5.6;60.9;102640;;;;
2021/04/24 02:41:24;;;;;;;14.0;10.7;;;;;;;5.4;62.0;102640;;;;
2021/04/24 02:43:24;;;;;;;14.0;10.7;;;;;;;5.7;60.5;102640;;;;
2021/04/24 02:45:24;;;;;;;14.0;10.7;;;;;;;5.4;61.6;102630;;;;
2021/04/24 02:47:24;;;;;;;14.0;10.7;;;;;;;5.3;61.6;102640;;;;
2021/04/24 02:49:24;;;;;;;14.0;10.7;;;;;;;5.4;61.3;102640;;;;
2021/04/24 02:51:24;;;;;;;15.4;11.2;;;;;;;5.3;61.7;102640;;;;
2021/04/24 02:53:24;;;;;;;15.4;11.2;;;;;;;5.5;60.5;102640;;;;
2021/04/24 02:55:24;;;;;;;15.4;11.2;;;;;;;5.3;61.4;102640;;;;
2021/04/24 03:01:24;;;;;;;15.4;11.2;;;;;;;5.4;61.3;102640;;;;
2021/04/24 03:03:24;;;;;;;15.4;11.2;;;;;;;5.5;61.2;102640;;;;
2021/04/24 03:05:24;;;;;;;15.4;11.2;;;;;;;5.4;61.1;102640;;;;
2021/04/24 03:11:24;;;;;;;13.7;11.1;;;;;;;5.3;61.4;102640;;;;
2021/04/24 03:13:24;;;;;;;13.7;11.1;;;;;;;5.2;61.6;102630;;;;
2021/04/24 03:19:24;;;;;;;13.7;11.1;;;;;;;5.3;61.6;102630;;;;
2021/04/24 03:21:24;;;;;;;13.7;11.1;;;;;;;5.2;61.7;102630;;;;
2021/04/24 03:23:24;;;;;;;13.7;11.1;;;;;;;5.1;61.8;102630;;;;
2021/04/24 03:27:24;;;;;;;13.7;11.1;;;;;;;5.2;61.8;102630;;;;
2021/04/24 03:29:24;;;;;;;13.7;11.1;;;;;;;5.0;62.5;102630;;;;
2021/04/24 03:31:24;;;;;;;16.0;12.0;;;;;;;5.1;62.1;102630;;;;
2021/04/24 03:33:24;;;;;;;16.0;12.0;;;;;;;5.2;61.1;102630;;;;
2021/04/24 03:35:24;;;;;;;16.0;12.0;;;;;;;5.3;61.1;102630;;;;
2021/04/24 03:39:24;;;;;;;16.0;12.0;;;;;;;5.2;60.8;102630;;;;
2021/04/24 03:45:24;;;;;;;16.0;12.0;;;;;;;5.4;60.3;102630;;;;
2021/04/24 03:47:24;;;;;;;16.0;12.0;;;;;;;5.3;60.1;102630;;;;
2021/04/24 03:57:24;;;;;;;14.7;11.2;;;;;;;5.2;60.8;102630;;;;
2021/04/24 03:59:24;;;;;;;14.7;11.2;;;;;;;5.1;61.9;102630;;;;
2021/04/24 04:01:24;;;;;;;14.7;11.2;;;;;;;4.8;62.3;102620;;;;
2021/04/24 04:05:26;;;;;;;14.7;11.2;;;;;;;4.9;62.0;102620;;;;
2021/04/24 04:07:24;;;;;;;14.7;11.2;;;;;;;5.0;61.4;102620;;;;
2021/04/24 04:09:24;;;;;;;14.7;11.2;;;;;;;5.1;61.3;102620;;;;
2021/04/24 04:11:24;;;;;;;17.4;12.6;;;;;;;5.0;60.9;102620;;;;
2021/04/24 04:13:24;;;;;;;17.4;12.6;;;;;;;4.9;61.9;102630;;;;
2021/04/24 04:17:24;;;;;;;17.4;12.6;;;;;;;4.8;62.2;102620;;;;
2021/04/24 04:19:28;;;;;;;17.4;12.6;;;;;;;4.9;62.2;102620;;;;
2021/04/24 04:23:24;;;;;;;17.4;12.6;;;;;;;4.8;62.6;102620;;;;
2021/04/24 04:25:24;;;;;;;17.4;12.6;;;;;;;4.7;62.7;102630;;;;
2021/04/24 04:29:24;;;;;;;17.4;12.6;;;;;;;4.8;62.5;102640;;;;
2021/04/24 04:31:24;;;;;;;17.2;12.4;;;;;;;4.7;63.1;102640;;;;
2021/04/24 04:33:24;;;;;;;17.2;12.4;;;;;;;4.8;61.9;102640;;;;
2021/04/24 04:35:24;;;;;;;17.2;12.4;;;;;;;4.9;62.0;102640;;;;
2021/04/24 04:37:24;;;;;;;17.2;12.4;;;;;;;4.8;62.4;102640;;;;
2021/04/24 04:43:24;;;;;;;17.2;12.4;;;;;;;4.7;63.4;102640;;;;
2021/04/24 04:45:24;;;;;;;17.2;12.4;;;;;;;4.8;62.7;102640;;;;
2021/04/24 04:47:24;;;;;;;17.2;12.4;;;;;;;4.7;63.4;102650;;;;
2021/04/24 04:49:24;;;;;;;17.2;12.4;;;;;;;4.6;63.6;102650;;;;
2021/04/24 04:51:24;;;;;;;20.6;12.7;;;;;;;4.8;63.2;102650;;;;
2021/04/24 04:53:34;;;;;;;20.6;12.7;;;;;;;4.7;63.7;102650;;;;
2021/04/24 04:55:24;;;;;;;20.6;12.7;;;;;;;4.8;63.8;102650;;;;
2021/04/24 05:01:25;;;;;;;20.6;12.7;;;;;;;4.7;63.4;102640;;;;
2021/04/24 05:03:24;;;;;;;20.6;12.7;;;;;;;4.8;63.5;102650;;;;
2021/04/24 05:09:25;;;;;;;20.6;12.7;;;;;;;4.7;63.6;102650;;;;
2021/04/24 05:51:25;;;;;;;18.3;13.9;;;;;;;5.2;64.2;102660;;;;
2021/04/24 05:53:25;;;;;;;18.3;13.9;;;;;;;5.3;64.2;102660;;;;
2021/04/24 05:55:25;;;;;;;18.3;13.9;;;;;;;5.4;63.9;102660;;;;
2021/04/24 05:57:25;;;;;;;18.3;13.9;;;;;;;5.3;64.2;102660;;;;
2021/04/24 06:09:56;;;;;;;26.2;14.0;;;;;;;5.8;63.7;102670;;;;
2021/04/24 07:11:06;;;;;;;14.2;11.4;;;;;;;7.3;62.4;102670;;;;
2021/04/24 07:13:07;;;;;;;14.2;11.4;;;;;;;7.4;61.9;102670;;;;
2021/04/24 07:15:06;;;;;;;14.2;11.4;;;;;;;7.5;61.3;102670;;;;
2021/04/24 07:17:07;;;;;;;14.2;11.4;;;;;;;7.7;61.4;102670;;;;
2021/04/24 07:21:07;;;;;;;14.2;11.4;;;;;;;7.8;60.9;102660;;;;
2021/04/24 07:25:07;;;;;;;14.2;11.4;;;;;;;7.7;60.9;102660;;;;
2021/04/24 07:27:06;;;;;;;14.2;11.4;;;;;;;7.9;60.9;102660;;;;
2021/04/24 07:29:06;;;;;;;14.2;11.4;;;;;;;7.8;60.6;102660;;;;
2021/04/24 07:31:08;;;;;;;15.4;11.1;;;;;;;7.9;60.3;102660;;;;
2021/04/24 07:33:06;;;;;;;15.4;11.1;;;;;;;7.7;60.6;102660;;;;
2021/04/24 07:35:06;;;;;;;15.4;11.1;;;;;;;7.8;60.3;102660;;;;
2021/04/24 07:37:07;;;;;;;15.4;11.1;;;;;;;7.9;60.3;102660;;;;
2021/04/24 07:39:07;;;;;;;15.4;11.1;;;;;;;8.1;59.4;102660;;;;
2021/04/24 07:41:06;;;;;;;15.4;11.1;;;;;;;8.3;59.1;102660;;;;
2021/04/24 07:43:06;;;;;;;15.4;11.1;;;;;;;8.4;58.6;102650;;;;
2021/04/24 07:47:08;;;;;;;15.4;11.1;;;;;;;8.5;57.2;102650;;;;
2021/04/24 07:51:07;;;;;;;8.5;7.5;;;;;;;8.6;57.3;102650;;;;
2021/04/24 07:57:06;;;;;;;8.5;7.5;;;;;;;8.7;56.4;102650;;;;
2021/04/24 07:59:07;;;;;;;8.5;7.5;;;;;;;8.8;55.1;102650;;;;
2021/04/24 08:01:07;;;;;;;8.5;7.5;;;;;;;8.6;54.8;102650;;;;
2021/04/24 08:03:06;;;;;;;8.5;7.5;;;;;;;8.8;54.6;102650;;;;
2021/04/24 08:07:07;;;;;;;8.5;7.5;;;;;;;8.7;54.6;102640;;;;
2021/04/24 08:09:07;;;;;;;8.5;7.5;;;;;;;8.6;54.8;102650;;;;
2021/04/24 08:11:06;;;;;;;10.4;7.4;;;;;;;8.9;54.4;102640;;;;
2021/04/24 08:13:07;;;;;;;10.4;7.4;;;;;;;8.8;54.0;102640;;;;
2021/04/24 08:19:07;;;;;;;10.4;7.4;;;;;;;8.9;53.2;102640;;;;
2021/04/24 08:25:06;;;;;;;10.4;7.4;;;;;;;9.1;52.2;102640;;;;
2021/04/24 08:27:06;;;;;;;10.4;7.4;;;;;;;9.0;51.8;102640;;;;
2021/04/24 08:31:07;;;;;;;7.8;5.0;;;;;;;9.2;50.4;102650;;;;
2021/04/24 08:33:08;;;;;;;7.8;5.0;;;;;;;9.0;50.5;102650;;;;
2021/04/24 08:35:06;;;;;;;7.8;5.0;;;;;;;9.3;50.0;102650;;;;
2021/04/24 08:37:08;;;;;;;7.8;5.0;;;;;;;9.4;50.2;102650;;;;
2021/04/24 08:43:06;;;;;;;7.8;5.0;;;;;;;9.5;49.3;102650;;;;
2021/04/24 08:45:14;;;;;;;7.8;5.0;;;;;;;9.4;50.2;102650;;;;
2021/04/24 08:47:07;;;;;;;7.8;5.0;;;;;;;9.3;51.0;102650;;;;
2021/04/24 08:49:06;;;;;;;7.8;5.0;;;;;;;9.4;51.0;102650;;;;
2021/04/24 08:51:06;;;;;;;8.7;6.0;;;;;;;9.5;49.9;102650;;;;
2021/04/24 08:53:06;;;;;;;8.7;6.0;;;;;;;9.8;50.0;102650;;;;
2021/04/24 08:55:06;;;;;;;8.7;6.0;;;;;;;9.9;49.6;102650;;;;
2021/04/24 08:59:11;;;;;;;8.7;6.0;;;;;;;10.1;49.4;102650;;;;
2021/04/24 09:03:06;;;;;;;8.7;6.0;;;;;;;10.2;48.7;102650;;;;
2021/04/24 09:07:06;;;;;;;8.7;6.0;;;;;;;10.1;47.9;102640;;;;
2021/04/24 09:09:07;;;;;;;8.7;6.0;;;;;;;10.3;48.3;102640;;;;
2021/04/24 09:13:07;;;;;;;6.1;5.5;;;;;;;10.4;47.0;102640;;;;
2021/04/24 09:15:06;;;;;;;6.1;5.5;;;;;;;10.5;46.9;102630;;;;
2021/04/24 09:17:07;;;;;;;6.1;5.5;;;;;;;10.7;46.9;102630;;;;
2021/04/24 09:21:13;;;;;;;6.1;5.5;;;;;;;10.5;46.5;102630;;;;
2021/04/24 09:23:07;;;;;;;6.1;5.5;;;;;;;10.6;46.6;102640;;;;
2021/04/24 09:25:06;;;;;;;6.1;5.5;;;;;;;10.5;48.2;102630;;;;
2021/04/24 09:27:16;;;;;;;6.1;5.5;;;;;;;10.6;47.2;102620;;;;
2021/04/24 09:29:07;;;;;;;9.2;5.6;;;;;;;10.7;46.4;102630;;;;
2021/04/24 09:31:07;;;;;;;9.2;5.6;;;;;;;10.5;46.2;102620;;;;
2021/04/24 09:33:07;;;;;;;9.2;5.6;;;;;;;10.8;45.9;102620;;;;
2021/04/24 09:35:07;;;;;;;9.2;5.6;;;;;;;11.1;45.1;102610;;;;
2021/04/24 09:37:07;;;;;;;9.2;5.6;;;;;;;11.0;44.8;102610;;;;
2021/04/24 09:39:07;;;;;;;9.2;5.6;;;;;;;11.1;44.2;102620;;;;
2021/04/24 09:41:07;;;;;;;9.2;5.6;;;;;;;10.9;44.9;102620;;;;
2021/04/24 09:43:07;;;;;;;9.2;5.6;;;;;;;11.0;45.8;102610;;;;
2021/04/24 09:45:08;;;;;;;9.2;5.6;;;;;;;11.2;45.5;102610;;;;
2021/04/24 09:49:07;;;;;;;7.3;5.3;;;;;;;11.1;45.0;102620;;;;
2021/04/24 09:55:07;;;;;;;7.3;5.3;;;;;;;10.9;45.4;102610;;;;
2021/04/24 09:57:07;;;;;;;7.3;5.3;;;;;;;11.0;45.4;102610;;;;
2021/04/24 09:59:07;;;;;;;7.3;5.3;;;;;;;10.9;44.3;102620;;;;
2021/04/24 10:01:07;;;;;;;7.3;5.3;;;;;;;11.0;45.3;102610;;;;
2021/04/24 10:03:07;;;;;;;7.3;5.3;;;;;;;10.8;45.1;102610;;;;
2021/04/24 10:05:07;;;;;;;7.3;5.3;;;;;;;10.7;44.7;102610;;;;
2021/04/24 10:07:07;;;;;;;7.3;5.3;;;;;;;10.8;45.1;102610;;;;
2021/04/24 10:09:07;;;;;;;13.0;5.5;;;;;;;11.1;47.0;102600;;;;
2021/04/24 10:11:06;;;;;;;13.0;5.5;;;;;;;11.2;46.1;102600;;;;
2021/04/24 10:13:07;;;;;;;13.0;5.5;;;;;;;11.3;46.3;102590;;;;
2021/04/24 10:15:06;;;;;;;13.0;5.5;;;;;;;11.4;45.3;102600;;;;
2021/04/24 10:17:07;;;;;;;13.0;5.5;;;;;;;11.2;45.2;102590;;;;
2021/04/24 10:19:06;;;;;;;13.0;5.5;;;;;;;11.4;45.3;102590;;;;
2021/04/24 10:21:07;;;;;;;13.0;5.5;;;;;;;11.5;44.1;102590;;;;
2021/04/24 10:23:06;;;;;;;13.0;5.5;;;;;;;11.7;42.9;102580;;;;
2021/04/24 10:27:07;;;;;;;13.0;5.5;;;;;;;11.8;42.6;102580;;;;
2021/04/24 10:29:07;;;;;;;3.8;3.4;;;;;;;11.6;41.0;102580;;;;
2021/04/24 10:33:07;;;;;;;3.8;3.4;;;;;;;11.8;42.4;102570;;;;
2021/04/24 10:35:07;;;;;;;3.8;3.4;;;;;;;12.0;41.7;102580;;;;
2021/04/24 10:37:06;;;;;;;3.8;3.4;;;;;;;11.8;41.5;102570;;;;
2021/04/24 10:39:07;;;;;;;3.8;3.4;;;;;;;12.1;40.8;102570;;;;
2021/04/24 10:43:07;;;;;;;3.8;3.4;;;;;;;12.2;40.7;102560;;;;
2021/04/24 10:45:07;;;;;;;3.8;3.4;;;;;;;12.4;41.2;102560;;;;
2021/04/24 10:47:07;;;;;;;3.8;3.4;;;;;;;12.5;40.3;102570;;;;
2021/04/24 10:49:06;;;;;;;3.8;3.3;;;;;;;12.3;39.1;102570;;;;
2021/04/24 10:51:06;;;;;;;3.8;3.3;;;;;;;12.4;40.3;102570;;;;
2021/04/24 10:53:06;;;;;;;3.8;3.3;;;;;;;12.6;38.8;102570;;;;
2021/04/24 10:55:06;;;;;;;3.8;3.3;;;;;;;12.1;39.2;102560;;;;
2021/04/24 10:57:06;;;;;;;3.8;3.3;;;;;;;12.3;39.0;102560;;;;
2021/04/24 10:59:06;;;;;;;3.8;3.3;;;;;;;12.6;38.7;102560;;;;
2021/04/24 11:03:07;;;;;;;3.8;3.3;;;;;;;12.7;39.6;102560;;;;
2021/04/24 11:05:06;;;;;;;3.8;3.3;;;;;;;12.5;37.9;102550;;;;
2021/04/24 11:07:07;;;;;;;3.8;3.3;;;;;;;12.4;38.8;102560;;;;
2021/04/24 11:09:06;;;;;;;4.8;3.6;;;;;;;12.3;39.9;102560;;;;
2021/04/24 11:11:07;;;;;;;4.8;3.6;;;;;;;12.6;39.9;102560;;;;
2021/04/24 11:13:07;;;;;;;4.8;3.6;;;;;;;13.0;38.5;102550;;;;
2021/04/24 11:15:07;;;;;;;4.8;3.6;;;;;;;12.8;39.0;102550;;;;
2021/04/24 11:15:19;;;;;;;4.8;3.6;;;;;;;12.8;39.0;102550;;;;
2021/04/24 11:17:07;;;;;;;4.8;3.6;;;;;;;12.7;40.6;102550;;;;
2021/04/24 11:19:07;;;;;;;4.8;3.6;;;;;;;13.0;41.8;102550;;;;
2021/04/24 11:21:08;;;;;;;4.8;3.6;;;;;;;13.1;39.9;102540;;;;
2021/04/24 11:23:11;;;;;;;4.8;3.6;;;;;;;13.2;39.8;102540;;;;
2021/04/24 11:27:06;;;;;;;4.8;3.6;;;;;;;13.0;37.7;102540;;;;
2021/04/24 11:29:08;;;;;;;12.0;4.9;;;;;;;13.1;38.7;102530;;;;
2021/04/24 11:31:07;;;;;;;12.0;4.9;;;;;;;13.2;37.8;102530;;;;
2021/04/24 11:33:06;;;;;;;12.0;4.9;;;;;;;13.4;37.7;102530;;;;
2021/04/24 11:35:06;;;;;;;12.0;4.9;;;;;;;13.5;37.6;102530;;;;
2021/04/24 11:37:07;;;;;;;12.0;4.9;;;;;;;13.4;38.4;102520;;;;
2021/04/24 11:41:06;;;;;;;12.0;4.9;;;;;;;13.5;40.2;102530;;;;
2021/04/24 11:43:07;;;;;;;12.0;4.9;;;;;;;13.4;38.4;102520;;;;
2021/04/24 11:45:15;;;;;;;12.0;4.9;;;;;;;13.3;38.1;102520;;;;
2021/04/24 11:47:07;;;;;;;12.0;4.9;;;;;;;13.2;38.1;102520;;;;
2021/04/24 11:49:07;;;;;;;7.1;4.9;;;;;;;13.5;38.1;102520;;;;
2021/04/24 11:55:06;;;;;;;7.1;4.9;;;;;;;13.7;37.4;102510;;;;
2021/04/24 11:57:07;;;;;;;7.1;4.9;;;;;;;13.8;37.4;102510;;;;
2021/04/24 11:59:07;;;;;;;7.1;4.9;;;;;;;13.9;39.9;102500;;;;
2021/04/24 12:01:06;;;;;;;7.1;4.9;;;;;;;14.2;40.1;102510;;;;
2021/04/24 12:05:10;;;;;;;7.1;4.9;;;;;;;13.9;36.5;102510;;;;
2021/04/24 12:11:06;;;;;;;9.5;4.7;;;;;;;14.1;36.4;102500;;;;
2021/04/24 12:13:06;;;;;;;9.5;4.7;;;;;;;14.2;38.5;102490;;;;
2021/04/24 12:15:07;;;;;;;9.5;4.7;;;;;;;14.3;39.7;102500;;;;
2021/04/24 12:17:07;;;;;;;9.5;4.7;;;;;;;14.4;37.6;102490;;;;
2021/04/24 12:23:06;;;;;;;9.5;4.7;;;;;;;14.7;36.5;102490;;;;
2021/04/24 12:25:06;;;;;;;9.5;4.7;;;;;;;14.5;35.4;102500;;;;
2021/04/24 12:27:06;;;;;;;9.5;4.7;;;;;;;14.2;35.2;102500;;;;
2021/04/24 12:29:06;;;;;;;6.4;4.3;;;;;;;14.4;36.0;102490;;;;
2021/04/24 12:31:07;;;;;;;6.4;4.3;;;;;;;14.5;37.3;102490;;;;
2021/04/24 12:33:07;;;;;;;6.4;4.3;;;;;;;14.6;37.1;102500;;;;
2021/04/24 12:37:08;;;;;;;6.4;4.3;;;;;;;14.4;37.0;102490;;;;
2021/04/24 12:39:06;;;;;;;6.4;4.3;;;;;;;14.3;37.1;102490;;;;
2021/04/24 12:41:07;;;;;;;6.4;4.3;;;;;;;14.6;37.6;102500;;;;
2021/04/24 12:43:07;;;;;;;6.4;4.3;;;;;;;14.7;36.5;102500;;;;
2021/04/24 12:45:06;;;;;;;6.4;4.3;;;;;;;14.6;34.6;102490;;;;
2021/04/24 12:47:07;;;;;;;6.4;4.3;;;;;;;14.8;34.9;102500;;;;
2021/04/24 12:49:07;;;;;;;4.7;4.0;;;;;;;14.4;35.0;102500;;;;
2021/04/24 12:53:07;;;;;;;4.7;4.0;;;;;;;14.7;34.4;102480;;;;
2021/04/24 12:55:07;;;;;;;4.7;4.0;;;;;;;14.9;33.7;102490;;;;
2021/04/24 12:57:06;;;;;;;4.7;4.0;;;;;;;15.0;34.7;102490;;;;
2021/04/24 12:59:06;;;;;;;4.7;4.0;;;;;;;14.9;34.5;102490;;;;
2021/04/24 13:01:07;;;;;;;4.7;4.0;;;;;;;14.5;34.4;102490;;;;
2021/04/24 13:03:06;;;;;;;4.7;4.0;;;;;;;14.6;36.0;102480;;;;
2021/04/24 13:05:06;;;;;;;4.7;4.0;;;;;;;14.8;34.2;102480;;;;
2021/04/24 13:07:06;;;;;;;4.7;4.0;;;;;;;14.5;34.6;102470;;;;
2021/04/24 13:09:06;;;;;;;7.8;4.4;;;;;;;14.9;34.7;102470;;;;
2021/04/24 13:11:07;;;;;;;7.8;4.4;;;;;;;14.8;33.2;102480;;;;
2021/04/24 13:13:07;;;;;;;7.8;4.4;;;;;;;14.7;34.9;102490;;;;
2021/04/24 13:15:06;;;;;;;7.8;4.4;;;;;;;14.5;34.3;102480;;;;
2021/04/24 13:17:07;;;;;;;7.8;4.4;;;;;;;14.8;33.9;102480;;;;
2021/04/24 13:19:06;;;;;;;7.8;4.4;;;;;;;14.9;36.1;102470;;;;
2021/04/24 13:21:07;;;;;;;7.8;4.4;;;;;;;15.1;34.1;102470;;;;
2021/04/24 13:23:06;;;;;;;7.8;4.4;;;;;;;14.9;33.7;102470;;;;
2021/04/24 13:25:07;;;;;;;7.8;4.4;;;;;;;15.2;34.0;102470;;;;
2021/04/24 13:27:07;;;;;;;7.8;4.4;;;;;;;15.3;33.5;102470;;;;
2021/04/24 13:29:06;;;;;;;4.8;3.9;;;;;;;15.5;32.7;102460;;;;
2021/04/24 13:31:07;;;;;;;4.8;3.9;;;;;;;15.3;32.6;102480;;;;
2021/04/24 13:33:06;;;;;;;4.8;3.9;;;;;;;14.8;33.7;102480;;;;
2021/04/24 13:39:06;;;;;;;4.8;3.9;;;;;;;15.1;35.3;102470;;;;
2021/04/24 13:41:06;;;;;;;4.8;3.9;;;;;;;15.0;35.7;102480;;;;
2021/04/24 13:45:07;;;;;;;4.8;3.9;;;;;;;15.1;34.3;102470;;;;
2021/04/24 13:47:07;;;;;;;4.8;3.9;;;;;;;15.2;35.1;102480;;;;
2021/04/24 13:49:06;;;;;;;11.4;5.3;;;;;;;15.7;34.9;102480;;;;
2021/04/24 13:53:11;;;;;;;11.4;5.3;;;;;;;15.4;34.9;102480;;;;
2021/04/24 13:55:06;;;;;;;11.4;5.3;;;;;;;15.6;35.7;102470;;;;
2021/04/24 13:57:07;;;;;;;11.4;5.3;;;;;;;15.9;34.4;102470;;;;
2021/04/24 13:59:07;;;;;;;11.4;5.3;;;;;;;15.6;35.8;102470;;;;
2021/04/24 14:01:08;;;;;;;11.4;5.3;;;;;;;15.9;36.4;102470;;;;
2021/04/24 14:03:07;;;;;;;11.4;5.3;;;;;;;15.3;35.6;102470;;;;
2021/04/24 14:05:07;;;;;;;11.4;5.3;;;;;;;15.4;37.0;102460;;;;
2021/04/24 14:11:07;;;;;;;7.8;5.7;;;;;;;15.2;35.5;102460;;;;
2021/04/24 14:13:16;;;;;;;7.8;5.7;;;;;;;15.3;35.2;102460;;;;
2021/04/24 14:15:07;;;;;;;7.8;5.7;;;;;;;15.4;34.9;102460;;;;
2021/04/24 14:17:07;;;;;;;7.8;5.7;;;;;;;15.2;36.2;102460;;;;
2021/04/24 14:21:07;;;;;;;7.8;5.7;;;;;;;14.6;35.8;102460;;;;
2021/04/24 14:23:07;;;;;;;7.8;5.7;;;;;;;14.8;37.2;102450;;;;
2021/04/24 14:25:07;;;;;;;7.8;5.7;;;;;;;15.0;35.1;102440;;;;
2021/04/24 14:27:07;;;;;;;7.8;5.7;;;;;;;14.7;36.5;102450;;;;
2021/04/24 14:29:07;;;;;;;7.4;5.8;;;;;;;14.6;36.5;102450;;;;
2021/04/24 14:31:08;;;;;;;7.4;5.8;;;;;;;14.8;36.8;102430;;;;
2021/04/24 14:33:07;;;;;;;7.4;5.8;;;;;;;14.9;36.0;102440;;;;
2021/04/24 14:35:07;;;;;;;7.4;5.8;;;;;;;15.0;36.0;102430;;;;
2021/04/24 14:37:07;;;;;;;7.4;5.8;;;;;;;15.3;35.9;102430;;;;
2021/04/24 14:39:08;;;;;;;7.4;5.8;;;;;;;15.2;36.5;102430;;;;
2021/04/24 14:41:07;;;;;;;7.4;5.8;;;;;;;15.1;36.1;102430;;;;
2021/04/24 14:45:07;;;;;;;7.4;5.8;;;;;;;14.9;35.0;102420;;;;
2021/04/24 14:47:07;;;;;;;7.4;5.8;;;;;;;14.8;35.8;102420;;;;
2021/04/24 14:49:07;;;;;;;10.2;5.1;;;;;;;14.7;35.6;102420;;;;
2021/04/24 14:51:06;;;;;;;10.2;5.1;;;;;;;14.8;35.2;102420;;;;
2021/04/24 14:55:07;;;;;;;10.2;5.1;;;;;;;14.6;36.1;102420;;;;
2021/04/24 14:57:07;;;;;;;10.2;5.1;;;;;;;14.8;37.0;102420;;;;
2021/04/24 14:59:07;;;;;;;10.2;5.1;;;;;;;14.9;36.2;102420;;;;
2021/04/24 15:01:07;;;;;;;10.2;5.1;;;;;;;14.8;36.0;102410;;;;
2021/04/24 15:03:07;;;;;;;10.2;5.1;;;;;;;14.4;36.1;102420;;;;
2021/04/24 15:05:07;;;;;;;10.2;5.1;;;;;;;14.6;34.9;102430;;;;
2021/04/24 15:07:11;;;;;;;10.2;5.1;;;;;;;14.7;35.3;102420;;;;
2021/04/24 15:09:09;;;;;;;5.8;4.5;;;;;;;14.9;36.4;102410;;;;
2021/04/24 15:11:07;;;;;;;5.8;4.5;;;;;;;15.1;35.0;102410;;;;
2021/04/24 15:13:07;;;;;;;5.8;4.5;;;;;;;15.2;35.7;102410;;;;
2021/04/24 15:15:07;;;;;;;5.8;4.5;;;;;;;15.3;35.7;102410;;;;
2021/04/24 15:17:07;;;;;;;5.8;4.5;;;;;;;15.2;34.3;102410;;;;
2021/04/24 15:19:07;;;;;;;5.8;4.5;;;;;;;15.0;34.3;102410;;;;
2021/04/24 15:21:07;;;;;;;5.8;4.5;;;;;;;14.9;34.7;102410;;;;
2021/04/24 15:23:07;;;;;;;5.8;4.5;;;;;;;15.1;34.4;102410;;;;
2021/04/24 15:27:07;;;;;;;5.8;4.5;;;;;;;15.2;34.6;102400;;;;
2021/04/24 15:29:07;;;;;;;5.7;4.2;;;;;;;15.0;34.6;102400;;;;
2021/04/24 15:31:07;;;;;;;5.7;4.2;;;;;;;15.2;34.4;102400;;;;
2021/04/24 15:33:07;;;;;;;5.7;4.2;;;;;;;15.5;33.6;102400;;;;
2021/04/24 15:35:07;;;;;;;5.7;4.2;;;;;;;15.6;33.9;102400;;;;
2021/04/24 15:37:07;;;;;;;5.7;4.2;;;;;;;15.8;33.0;102400;;;;
2021/04/24 15:39:07;;;;;;;5.7;4.2;;;;;;;15.4;33.1;102400;;;;
2021/04/24 15:41:07;;;;;;;5.7;4.2;;;;;;;15.3;32.8;102400;;;;
2021/04/24 15:43:07;;;;;;;5.7;4.2;;;;;;;14.9;33.2;102390;;;;
2021/04/24 15:45:11;;;;;;;5.7;4.2;;;;;;;15.0;33.4;102390;;;;
2021/04/24 15:47:07;;;;;;;5.7;4.2;;;;;;;15.1;32.6;102390;;;;
2021/04/24 15:53:07;;;;;;;6.1;3.9;;;;;;;14.9;33.5;102390;;;;
2021/04/24 15:57:07;;;;;;;6.1;3.9;;;;;;;14.8;33.1;102380;;;;
2021/04/24 15:59:07;;;;;;;6.1;3.9;;;;;;;14.9;33.4;102380;;;;
2021/04/24 16:01:07;;;;;;;6.1;3.9;;;;;;;15.1;33.2;102380;;;;
2021/04/24 16:03:07;;;;;;;6.1;3.9;;;;;;;15.4;32.3;102370;;;;
2021/04/24 16:09:07;;;;;;;6.0;3.5;;;;;;;15.5;32.3;102370;;;;
2021/04/24 16:11:07;;;;;;;6.0;3.5;;;;;;;15.4;32.1;102370;;;;
2021/04/24 16:13:07;;;;;;;6.0;3.5;;;;;;;15.7;31.7;102370;;;;
2021/04/24 16:15:07;;;;;;;6.0;3.5;;;;;;;15.5;31.6;102360;;;;
2021/04/24 16:19:07;;;;;;;6.0;3.5;;;;;;;15.9;32.4;102370;;;;
2021/04/24 16:23:07;;;;;;;6.0;3.5;;;;;;;15.8;30.9;102370;;;;
2021/04/24 16:25:07;;;;;;;6.0;3.5;;;;;;;15.9;31.1;102370;;;;
2021/04/24 16:27:07;;;;;;;6.0;3.5;;;;;;;16.5;30.8;102370;;;;
2021/04/24 16:29:07;;;;;;;5.1;2.8;;;;;;;16.4;30.2;102370;;;;
2021/04/24 16:31:07;;;;;;;5.1;2.8;;;;;;;16.5;30.5;102360;;;;
2021/04/24 16:33:07;;;;;;;5.1;2.8;;;;;;;16.4;29.3;102370;;;;
2021/04/24 16:35:07;;;;;;;5.1;2.8;;;;;;;16.3;29.6;102370;;;;
2021/04/24 16:37:07;;;;;;;5.1;2.8;;;;;;;16.1;29.0;102370;;;;
2021/04/24 16:39:07;;;;;;;5.1;2.8;;;;;;;16.0;28.4;102370;;;;
2021/04/24 16:41:07;;;;;;;5.1;2.8;;;;;;;16.1;28.2;102370;;;;
2021/04/24 16:43:07;;;;;;;5.1;2.8;;;;;;;15.9;29.9;102370;;;;
2021/04/24 16:45:14;;;;;;;5.1;2.8;;;;;;;15.7;28.9;102370;;;;
2021/04/24 16:47:07;;;;;;;5.1;2.8;;;;;;;15.9;29.0;102370;;;;
2021/04/24 16:49:07;;;;;;;4.5;1.8;;;;;;;16.0;28.8;102370;;;;
2021/04/24 16:51:07;;;;;;;4.5;1.8;;;;;;;15.2;28.6;102370;;;;
2021/04/24 16:53:07;;;;;;;4.5;1.8;;;;;;;15.3;29.1;102370;;;;
2021/04/24 16:55:07;;;;;;;4.5;1.8;;;;;;;15.4;28.8;102370;;;;
2021/04/24 16:57:07;;;;;;;4.5;1.8;;;;;;;15.2;29.0;102360;;;;
2021/04/24 16:59:07;;;;;;;4.5;1.8;;;;;;;15.3;28.6;102370;;;;
2021/04/24 17:01:07;;;;;;;4.5;1.8;;;;;;;15.2;29.9;102370;;;;
2021/04/24 17:07:07;;;;;;;4.5;1.8;;;;;;;15.1;29.3;102370;;;;
2021/04/24 17:09:11;;;;;;;4.6;2.2;;;;;;;15.0;29.0;102370;;;;
2021/04/24 17:11:07;;;;;;;4.6;2.2;;;;;;;14.8;29.1;102370;;;;
2021/04/24 17:13:07;;;;;;;4.6;2.2;;;;;;;14.7;29.5;102380;;;;
2021/04/24 17:15:07;;;;;;;4.6;2.2;;;;;;;14.8;29.8;102380;;;;
2021/04/24 17:17:07;;;;;;;4.6;2.2;;;;;;;14.6;29.8;102370;;;;
2021/04/24 17:19:08;;;;;;;4.6;2.2;;;;;;;14.7;30.3;102380;;;;
2021/04/24 17:21:07;;;;;;;4.6;2.2;;;;;;;14.5;30.5;102380;;;;
2021/04/24 17:23:08;;;;;;;4.6;2.2;;;;;;;14.2;30.5;102380;;;;
2021/04/24 17:25:07;;;;;;;4.6;2.2;;;;;;;13.9;30.9;102370;;;;
2021/04/24 17:27:07;;;;;;;4.6;2.2;;;;;;;13.8;30.6;102380;;;;
2021/04/24 17:29:07;;;;;;;4.4;2.2;;;;;;;14.0;31.3;102380;;;;
2021/04/24 17:31:07;;;;;;;4.4;2.2;;;;;;;13.8;30.9;102380;;;;
2021/04/24 17:33:07;;;;;;;4.4;2.2;;;;;;;13.4;32.0;102380;;;;
2021/04/24 17:35:07;;;;;;;4.4;2.2;;;;;;;13.3;31.7;102380;;;;
2021/04/24 17:37:07;;;;;;;4.4;2.2;;;;;;;13.6;32.1;102380;;;;
2021/04/24 17:39:07;;;;;;;4.4;2.2;;;;;;;13.4;32.0;102380;;;;
2021/04/24 17:41:07;;;;;;;4.4;2.2;;;;;;;13.6;32.1;102380;;;;
2021/04/24 17:43:07;;;;;;;4.4;2.2;;;;;;;13.2;32.3;102390;;;;
2021/04/24 17:47:07;;;;;;;4.4;2.2;;;;;;;13.0;32.3;102400;;;;
2021/04/24 17:49:07;;;;;;;4.7;2.3;;;;;;;12.8;32.4;102390;;;;
2021/04/24 17:51:07;;;;;;;4.7;2.3;;;;;;;12.6;32.7;102400;;;;
2021/04/24 17:53:07;;;;;;;4.7;2.3;;;;;;;12.4;32.4;102390;;;;
2021/04/24 17:55:07;;;;;;;4.7;2.3;;;;;;;12.7;33.0;102390;;;;
2021/04/24 17:57:07;;;;;;;4.7;2.3;;;;;;;12.4;32.2;102390;;;;
2021/04/24 17:59:07;;;;;;;4.7;2.3;;;;;;;12.5;32.8;102400;;;;
2021/04/24 18:01:07;;;;;;;4.7;2.3;;;;;;;12.6;32.7;102400;;;;
2021/04/24 18:03:07;;;;;;;4.7;2.3;;;;;;;12.4;33.2;102400;;;;
2021/04/24 18:05:07;;;;;;;4.7;2.3;;;;;;;12.3;32.9;102400;;;;
2021/04/24 18:07:07;;;;;;;4.7;2.3;;;;;;;12.2;33.3;102400;;;;
2021/04/24 18:11:07;;;;;;;3.8;2.4;;;;;;;12.4;33.1;102400;;;;
2021/04/24 18:13:08;;;;;;;3.8;2.4;;;;;;;12.2;33.1;102410;;;;
2021/04/24 18:15:07;;;;;;;3.8;2.4;;;;;;;12.1;33.0;102400;;;;